Washington Dulles International Airport
KIAD : now visible

Airfield :











YOU CAN JOIN US ON...

 
LOGIN :

Register | Disclaimer

   EN    FR    IT 

 









Legend :    VFR   Marginal VFR   IFR   Intensive IFR   Very Intensive IFR
Visi :
Ceiling :
>= 8 km
>= 3000ft
5 to 8 km
1000 to 3000 ft
1500m to 5 km
500 to 1000 ft
800 to 1500m
200 to 500 ft
< 800m
< 200 ft
Symbols :   Thunderstorms  Fog  Heavy snow  Heavy precipitations  Wind > 20 kt






- Airport Elevation : 312 ft
- IATA code : IAD


KIAD - Washington Dulles International

CURRENT METAR :
  • 281752Z 13005KT 10SM BKN009 OVC012 14/12 A2996 RMK AO2 SLP144 60015 T01390117 10139 20117 57009

EXPIRED METARs :
  • 281652Z 15007KT 10SM BKN009 OVC012 14/11 A2996 RMK AO2 SLP146 T01390111
  • 281552Z 13006KT 8SM BKN009 OVC014 13/11 A2998 RMK AO2 SLP151 T01330111

TAF KIAD
Valid from the 28 at 18:00 until the 30 at 00:00 UTC


281734Z 2818/2924 13007KT P6SM OVC008
FM290300 08004KT 2SM BR OVC003
FM291300 12004KT 4SM BR BKN008
FM291500 15005KT P6SM BKN010
FM291700 18006KT P6SM BKN025
FM292200 23009KT P6SM SCT060



MET'MAP, your aeronautical weather chart ! - Copyright ORBIFLY December 2007 - Disclaimer

ORBIFLY MET'MAP TEAM :

Programming & Development : Alexandra Zaïnal
Concept & original design : Baudouin d'Aumeries
Assistance for programming : Marc-Olivier Méhu
Technical & hardware support : Manuel Goepfert

Contact : metmap@orbifly.com




SOURCES & CREDITS :

   NOAA       Earth
Advisory